createdAt,value
2019-02-18T00:03:54.274Z,2.50
2019-02-18T00:07:58.836Z,3.22
2019-02-18T00:12:03.931Z,2.10
2019-02-18T00:16:08.503Z,2.40
2019-02-18T00:20:13.538Z,2.62
2019-02-18T00:24:18.264Z,2.20
2019-02-18T00:28:22.822Z,2.30
2019-02-18T00:32:27.460Z,2.70
2019-02-18T00:36:32.036Z,2.60
2019-02-18T00:40:37.831Z,2.80
2019-02-18T00:44:42.387Z,2.87
2019-02-18T00:48:46.938Z,2.60
2019-02-18T00:52:52.897Z,2.50
2019-02-18T00:56:57.462Z,2.42
2019-02-18T01:01:02.236Z,2.60
2019-02-18T01:05:07.320Z,2.58
2019-02-18T01:09:11.951Z,2.33
2019-02-18T01:13:16.848Z,2.10
2019-02-18T01:17:21.391Z,2.65
2019-02-18T01:21:26.109Z,1.70
2019-02-18T01:25:30.837Z,2.30
2019-02-18T01:29:35.584Z,2.10
2019-02-18T01:33:40.451Z,1.60
2019-02-18T01:37:46.272Z,2.42
2019-02-18T01:41:51.777Z,1.50
2019-02-18T01:45:57.652Z,1.90
2019-02-18T01:50:02.687Z,1.15
2019-02-18T01:54:08.428Z,1.20
2019-02-18T01:58:13.276Z,1.20
2019-02-18T02:02:18.163Z,1.47
2019-02-18T02:06:22.793Z,1.20
2019-02-18T02:10:27.661Z,1.30
2019-02-18T02:14:32.223Z,1.35
2019-02-18T02:18:36.780Z,1.25
2019-02-18T02:22:41.517Z,1.32
2019-02-18T02:26:46.160Z,1.98
2019-02-18T02:30:50.896Z,1.40
2019-02-18T02:34:55.528Z,1.35
2019-02-18T02:39:00.116Z,1.40
2019-02-18T02:43:04.781Z,1.40
2019-02-18T02:47:09.357Z,1.30
2019-02-18T02:51:14.131Z,1.25
2019-02-18T02:55:18.701Z,1.35
2019-02-18T02:59:23.255Z,1.32
2019-02-18T03:03:27.812Z,1.50
2019-02-18T03:07:32.364Z,1.30
2019-02-18T03:11:37.152Z,1.07
2019-02-18T03:15:41.711Z,1.57
2019-02-18T03:19:47.409Z,1.50
2019-02-18T03:23:51.965Z,1.37
2019-02-18T03:28:15.980Z,1.45
2019-02-18T03:32:20.672Z,1.42
2019-02-18T03:36:25.256Z,1.60
2019-02-18T03:40:30.070Z,1.60
2019-02-18T03:44:34.620Z,1.50
2019-02-18T03:48:39.171Z,1.62
2019-02-18T03:52:43.982Z,1.40
2019-02-18T03:56:48.525Z,1.40
2019-02-18T04:00:53.332Z,2.10
2019-02-18T04:04:58.051Z,1.72
2019-02-18T04:09:02.793Z,1.70
2019-02-18T04:13:08.494Z,1.45
2019-02-18T04:17:13.030Z,1.70
2019-02-18T04:21:17.873Z,1.52
2019-02-18T04:25:22.428Z,1.80
2019-02-18T04:29:27.235Z,1.47
2019-02-18T04:33:31.804Z,1.87
2019-02-18T04:37:37.111Z,1.75
2019-02-18T04:41:41.760Z,1.47
2019-02-18T04:45:46.325Z,1.55
2019-02-18T04:49:51.121Z,1.85
2019-02-18T04:53:55.684Z,1.62
2019-02-18T04:58:00.295Z,1.47
2019-02-18T05:02:05.066Z,1.70
2019-02-18T05:06:09.628Z,1.52
2019-02-18T05:10:14.425Z,1.60
2019-02-18T05:14:18.987Z,1.60
2019-02-18T05:18:23.546Z,1.82
2019-02-18T05:22:29.507Z,1.98
2019-02-18T05:26:34.067Z,1.80
2019-02-18T05:30:38.897Z,1.80
2019-02-18T05:34:43.464Z,2.25
2019-02-18T05:38:48.293Z,1.98
2019-02-18T05:42:53.112Z,1.80
2019-02-18T05:46:57.641Z,2.10
2019-02-18T05:51:02.475Z,1.55
2019-02-18T05:55:07.085Z,1.65
2019-02-18T05:59:11.876Z,1.77
2019-02-18T06:03:16.429Z,1.87
2019-02-18T06:07:21.034Z,2.70
2019-02-18T06:11:25.780Z,2.45
2019-02-18T06:15:30.557Z,3.05
2019-02-18T06:19:35.138Z,2.20
2019-02-18T06:23:40.724Z,2.47
2019-02-18T06:27:45.256Z,3.37
2019-02-18T06:31:50.648Z,3.90
2019-02-18T06:35:55.230Z,3.08
2019-02-18T06:39:59.844Z,3.87
2019-02-18T06:44:05.958Z,4.40
2019-02-18T06:48:23.539Z,4.33
2019-02-18T06:52:28.193Z,3.50
2019-02-18T06:56:50.613Z,4.00
2019-02-18T07:01:02.865Z,3.47
2019-02-18T07:09:58.298Z,3.22
2019-02-18T07:14:02.811Z,3.55
2019-02-18T07:18:07.357Z,3.33
2019-02-18T07:22:12.455Z,3.25
2019-02-18T07:26:17.304Z,3.80
2019-02-18T07:35:32.080Z,4.60
2019-02-18T07:40:07.368Z,3.30
2019-02-18T07:44:11.922Z,3.25
2019-02-18T07:48:16.456Z,3.35
2019-02-18T07:52:50.718Z,3.10
2019-02-18T07:56:55.299Z,3.87
2019-02-18T08:01:33.359Z,3.10
2019-02-18T08:05:37.914Z,3.75
2019-02-18T08:10:15.631Z,4.00
2019-02-18T08:14:20.174Z,3.00
2019-02-18T08:18:24.756Z,2.95
2019-02-18T08:22:59.293Z,3.12
2019-02-18T08:27:03.828Z,3.35
2019-02-18T08:31:08.687Z,3.77
2019-02-18T08:35:13.243Z,3.35
2019-02-18T08:39:17.812Z,3.52
2019-02-18T08:43:22.355Z,3.02
2019-02-18T08:47:26.907Z,2.62
2019-02-18T08:51:31.460Z,2.25
2019-02-18T08:55:35.992Z,2.92
2019-02-18T08:59:40.522Z,2.85
2019-02-18T09:03:45.052Z,3.62
2019-02-18T09:07:49.597Z,3.62
2019-02-18T09:11:56.935Z,2.40
2019-02-18T09:16:01.475Z,2.52
2019-02-18T09:20:06.692Z,2.10
2019-02-18T09:24:24.728Z,2.12
2019-02-18T09:28:29.263Z,1.90
2019-02-18T09:32:33.808Z,1.75
2019-02-18T09:36:38.641Z,1.70
2019-02-18T09:40:46.108Z,1.82
2019-02-18T09:44:49.479Z,1.40
2019-02-18T09:48:54.039Z,1.57
2019-02-18T09:52:58.656Z,1.72
2019-02-18T09:57:03.333Z,1.40
2019-02-18T10:01:07.906Z,1.70
2019-02-18T10:05:12.492Z,1.87
2019-02-18T10:09:17.384Z,1.95
2019-02-18T10:13:22.044Z,1.50
2019-02-18T10:17:26.651Z,1.67
2019-02-18T10:21:31.176Z,1.98
2019-02-18T10:25:35.701Z,1.85
2019-02-18T10:29:40.315Z,2.00
2019-02-18T10:33:44.861Z,2.00
2019-02-18T10:37:55.004Z,1.90
2019-02-18T10:41:55.772Z,2.00
2019-02-18T10:46:00.320Z,1.80
2019-02-18T10:50:05.872Z,2.08
2019-02-18T10:54:10.401Z,2.72
2019-02-18T10:58:15.020Z,1.67
2019-02-18T11:02:19.901Z,1.70
2019-02-18T11:06:24.572Z,2.70
2019-02-18T11:10:29.107Z,1.90
2019-02-18T11:14:33.682Z,2.20
2019-02-18T11:18:38.296Z,2.20
2019-02-18T11:22:42.852Z,1.65
2019-02-18T11:26:47.396Z,1.50
2019-02-18T11:30:51.931Z,1.72
2019-02-18T11:34:56.477Z,1.65
2019-02-18T11:39:01.029Z,1.60
2019-02-18T11:43:07.265Z,1.67
2019-02-18T11:47:11.795Z,1.90
2019-02-18T11:51:17.156Z,1.60
2019-02-18T11:55:21.697Z,1.50
2019-02-18T11:59:26.240Z,1.20
2019-02-18T12:03:30.824Z,1.67
2019-02-18T12:07:35.369Z,1.47
2019-02-18T12:11:40.204Z,1.30
2019-02-18T12:15:44.732Z,1.20
2019-02-18T12:19:49.907Z,1.42
2019-02-18T12:23:54.535Z,2.35
2019-02-18T12:27:59.080Z,2.72
2019-02-18T12:32:03.633Z,2.50
2019-02-18T12:36:08.265Z,3.35
2019-02-18T12:40:12.872Z,3.37
2019-02-18T12:44:17.417Z,2.00
2019-02-18T12:48:21.972Z,2.17
2019-02-18T12:52:26.537Z,3.00
2019-02-18T12:56:31.140Z,2.00
2019-02-18T13:00:36.185Z,1.70
2019-02-18T13:04:40.802Z,2.77
2019-02-18T13:08:45.477Z,1.98
2019-02-18T13:12:50.091Z,1.62
2019-02-18T13:16:55.902Z,1.40
2019-02-18T13:21:00.525Z,1.37
2019-02-18T13:25:05.224Z,1.40
2019-02-18T13:29:09.769Z,1.12
2019-02-18T13:33:14.324Z,1.20
2019-02-18T13:37:18.920Z,1.50
2019-02-18T13:41:23.471Z,1.17
2019-02-18T13:45:28.415Z,1.25
2019-02-18T13:49:33.059Z,1.50
2019-02-18T13:53:37.686Z,1.30
2019-02-18T13:57:42.314Z,0.90
2019-02-18T14:01:46.930Z,1.65
2019-02-18T14:05:51.604Z,1.35
2019-02-18T14:09:56.233Z,1.15
2019-02-18T14:14:02.505Z,1.60
2019-02-18T14:18:07.047Z,1.67
2019-02-18T14:22:12.633Z,1.47
2019-02-18T14:26:17.180Z,1.50
2019-02-18T14:30:21.752Z,2.05
2019-02-18T14:34:26.306Z,2.12
2019-02-18T14:38:31.095Z,2.10
2019-02-18T14:42:35.631Z,1.87
2019-02-18T14:46:40.184Z,1.90
2019-02-18T14:50:45.070Z,2.20
2019-02-18T14:54:49.691Z,2.12
2019-02-18T14:58:54.228Z,2.20
2019-02-18T15:02:58.873Z,2.75
2019-02-18T15:07:03.999Z,2.20
2019-02-18T15:11:08.545Z,2.42
2019-02-18T15:15:13.090Z,2.30
2019-02-18T15:19:17.629Z,3.27
2019-02-18T15:23:22.260Z,3.12
2019-02-18T15:27:26.868Z,3.67
2019-02-18T15:31:31.443Z,2.33
2019-02-18T15:35:36.014Z,3.22
2019-02-18T15:39:40.708Z,2.58
2019-02-18T15:43:46.804Z,5.10
2019-02-18T15:47:51.336Z,2.72
2019-02-18T15:51:55.933Z,4.62
2019-02-18T15:56:00.545Z,3.10
2019-02-18T16:00:06.791Z,2.60
2019-02-18T16:04:12.957Z,2.98
2019-02-18T16:08:18.583Z,2.83
2019-02-18T16:12:24.706Z,3.17
2019-02-18T16:16:29.608Z,3.72
2019-02-18T16:20:34.187Z,4.90
2019-02-18T16:24:38.724Z,3.83
2019-02-18T16:28:43.264Z,3.75
2019-02-18T16:32:47.887Z,3.35
2019-02-18T16:36:52.448Z,3.40
2019-02-18T16:40:56.992Z,3.62
2019-02-18T16:45:01.921Z,10.98
2019-02-18T16:49:06.467Z,5.58
2019-02-18T16:53:11.077Z,7.45
2019-02-18T16:57:15.695Z,6.90
2019-02-18T17:01:20.247Z,6.05
2019-02-18T17:05:24.804Z,9.63
2019-02-18T17:09:29.351Z,6.58
2019-02-18T17:13:33.922Z,5.22
2019-02-18T17:17:38.476Z,11.35
2019-02-18T17:21:43.104Z,7.22
2019-02-18T17:25:47.667Z,11.22
2019-02-18T17:29:52.236Z,12.18
2019-02-18T17:33:57.227Z,7.72
2019-02-18T17:38:01.800Z,7.35
2019-02-18T17:42:06.427Z,6.58
2019-02-18T17:46:10.978Z,7.12
2019-02-18T17:50:15.544Z,7.72
2019-02-18T17:54:20.169Z,6.80
2019-02-18T17:58:24.704Z,7.75
2019-02-18T18:02:30.428Z,8.08
2019-02-18T18:06:34.981Z,13.18
2019-02-18T18:10:39.535Z,12.93
2019-02-18T18:14:44.107Z,9.75
2019-02-18T18:18:48.905Z,6.70
2019-02-18T18:22:53.489Z,7.47
2019-02-18T18:26:58.040Z,7.55
2019-02-18T18:31:02.614Z,7.45
2019-02-18T18:35:08.348Z,6.15
2019-02-18T18:39:12.909Z,9.50
2019-02-18T18:43:17.472Z,5.87
2019-02-18T18:47:22.024Z,7.37
2019-02-18T18:51:26.576Z,7.62
2019-02-18T18:55:31.609Z,7.90
2019-02-18T18:59:36.149Z,7.20
2019-02-18T19:03:40.696Z,8.40
2019-02-18T19:07:45.275Z,7.83
2019-02-18T19:11:49.959Z,8.00
2019-02-18T19:15:55.264Z,6.65
2019-02-18T19:19:59.928Z,7.15
2019-02-18T19:24:05.085Z,7.95
2019-02-18T19:28:10.241Z,7.42
2019-02-18T19:32:15.990Z,6.60
2019-02-18T19:36:20.596Z,6.75
2019-02-18T19:40:25.425Z,6.00
2019-02-18T19:44:30.525Z,6.62
2019-02-18T19:48:35.435Z,5.97
2019-02-18T19:52:40.208Z,5.85
2019-02-18T19:56:45.253Z,5.65
2019-02-18T20:00:50.065Z,6.65
2019-02-18T20:04:55.746Z,6.17
2019-02-18T20:09:01.460Z,5.08
2019-02-18T20:13:07.569Z,6.10
2019-02-18T20:17:13.208Z,6.05
2019-02-18T20:21:18.705Z,6.65
2019-02-18T20:25:23.329Z,8.83
2019-02-18T20:29:28.374Z,14.53
2019-02-18T20:33:36.219Z,9.85
2019-02-18T20:37:40.846Z,7.67
2019-02-18T20:41:47.256Z,5.95
2019-02-18T20:45:51.840Z,6.22
2019-02-18T20:49:56.632Z,5.47
2019-02-18T20:54:01.206Z,4.90
2019-02-18T20:58:06.229Z,5.15
2019-02-18T21:02:11.085Z,5.87
2019-02-18T21:06:15.685Z,4.33
2019-02-18T21:10:20.468Z,4.35
2019-02-18T21:14:25.040Z,4.22
2019-02-18T21:18:29.587Z,5.30
2019-02-18T21:22:34.434Z,4.50
2019-02-18T21:26:39.706Z,5.17
2019-02-18T21:30:44.816Z,5.15
2019-02-18T21:34:49.885Z,5.28
2019-02-18T21:38:54.957Z,4.75
2019-02-18T21:42:59.802Z,4.92
2019-02-18T21:47:06.379Z,4.90
2019-02-18T21:51:11.387Z,5.22
2019-02-18T21:55:16.196Z,6.42
2019-02-18T21:59:20.753Z,6.22
2019-02-18T22:03:25.892Z,6.03
2019-02-18T22:07:30.501Z,6.10
2019-02-18T22:11:35.067Z,5.95
2019-02-18T22:15:39.621Z,5.00
2019-02-18T22:19:44.832Z,5.75
2019-02-18T22:23:49.615Z,5.50
2019-02-18T22:27:54.297Z,4.85
2019-02-18T22:31:59.232Z,4.95
2019-02-18T22:36:04.249Z,4.92
2019-02-18T22:40:08.971Z,5.53
2019-02-18T22:44:13.684Z,5.30
2019-02-18T22:48:19.438Z,5.00
2019-02-18T22:52:24.140Z,5.28
2019-02-18T22:56:29.303Z,4.78
2019-02-18T23:00:57.591Z,4.42
2019-02-18T23:05:02.165Z,5.78
2019-02-18T23:09:10.578Z,5.08
2019-02-18T23:13:15.201Z,4.90
2019-02-18T23:17:20.043Z,5.58
2019-02-18T23:21:25.498Z,4.50
2019-02-18T23:25:30.351Z,5.20
2019-02-18T23:29:35.864Z,5.45
2019-02-18T23:33:40.694Z,5.50
2019-02-18T23:37:45.596Z,6.10
2019-02-18T23:41:50.420Z,5.87
2019-02-18T23:45:56.277Z,4.80
2019-02-18T23:50:02.161Z,4.83
2019-02-18T23:54:06.895Z,4.33
2019-02-18T23:58:11.609Z,4.50
